sensor_id;sensor_type;location;lat;lon;timestamp;temperature;humidity
49765;DHT22;35657;51.204;-4.130;2022-11-18T00:01:16;11.20;99.90
49765;DHT22;35657;51.204;-4.130;2022-11-18T00:03:43;11.20;99.90
49765;DHT22;35657;51.204;-4.130;2022-11-18T00:06:12;11.20;99.90
49765;DHT22;35657;51.204;-4.130;2022-11-18T00:08:38;11.20;99.90
49765;DHT22;35657;51.204;-4.130;2022-11-18T00:11:05;11.20;99.90
49765;DHT22;35657;51.204;-4.130;2022-11-18T00:13:31;11.20;99.90
49765;DHT22;35657;51.204;-4.130;2022-11-18T00:16:15;11.20;99.90
49765;DHT22;35657;51.204;-4.130;2022-11-18T00:18:41;11.20;99.90
49765;DHT22;35657;51.204;-4.130;2022-11-18T00:21:09;11.20;99.90
49765;DHT22;35657;51.204;-4.130;2022-11-18T00:23:36;11.10;99.90
49765;DHT22;35657;51.204;-4.130;2022-11-18T00:26:07;11.20;99.90
49765;DHT22;35657;51.204;-4.130;2022-11-18T00:28:34;11.10;99.90
49765;DHT22;35657;51.204;-4.130;2022-11-18T00:31:08;11.10;99.90
49765;DHT22;35657;51.204;-4.130;2022-11-18T00:33:34;11.10;99.90
49765;DHT22;35657;51.204;-4.130;2022-11-18T00:36:02;11.10;99.90
49765;DHT22;35657;51.204;-4.130;2022-11-18T00:38:28;11.10;99.90
49765;DHT22;35657;51.204;-4.130;2022-11-18T00:41:14;11.00;99.90
49765;DHT22;35657;51.204;-4.130;2022-11-18T00:43:41;11.00;99.90
49765;DHT22;35657;51.204;-4.130;2022-11-18T00:46:11;11.00;99.90
49765;DHT22;35657;51.204;-4.130;2022-11-18T00:48:38;11.00;99.90
49765;DHT22;35657;51.204;-4.130;2022-11-18T00:53:33;11.00;99.90
49765;DHT22;35657;51.204;-4.130;2022-11-18T00:55:58;11.00;99.90
49765;DHT22;35657;51.204;-4.130;2022-11-18T00:58:24;11.00;99.90
49765;DHT22;35657;51.204;-4.130;2022-11-18T01:00:51;11.00;99.90
49765;DHT22;35657;51.204;-4.130;2022-11-18T01:03:18;11.00;99.90
49765;DHT22;35657;51.204;-4.130;2022-11-18T01:05:43;11.10;99.90
49765;DHT22;35657;51.204;-4.130;2022-11-18T01:08:11;11.00;99.90
49765;DHT22;35657;51.204;-4.130;2022-11-18T01:10:38;11.00;99.90
49765;DHT22;35657;51.204;-4.130;2022-11-18T01:13:05;11.00;99.90
49765;DHT22;35657;51.204;-4.130;2022-11-18T01:15:56;11.00;99.90
49765;DHT22;35657;51.204;-4.130;2022-11-18T01:18:23;11.00;99.90
49765;DHT22;35657;51.204;-4.130;2022-11-18T01:20:49;11.00;99.90
49765;DHT22;35657;51.204;-4.130;2022-11-18T01:23:16;11.00;99.90
49765;DHT22;35657;51.204;-4.130;2022-11-18T01:25:44;11.00;99.90
49765;DHT22;35657;51.204;-4.130;2022-11-18T01:28:11;11.00;99.90
49765;DHT22;35657;51.204;-4.130;2022-11-18T01:30:38;11.00;99.90
49765;DHT22;35657;51.204;-4.130;2022-11-18T01:33:04;11.10;99.90
49765;DHT22;35657;51.204;-4.130;2022-11-18T01:35:35;11.00;99.90
49765;DHT22;35657;51.204;-4.130;2022-11-18T01:38:02;11.10;99.90
49765;DHT22;35657;51.204;-4.130;2022-11-18T01:40:27;11.00;99.90
49765;DHT22;35657;51.204;-4.130;2022-11-18T01:42:54;11.10;99.90
49765;DHT22;35657;51.204;-4.130;2022-11-18T01:47:59;11.10;99.90
49765;DHT22;35657;51.204;-4.130;2022-11-18T01:50:27;11.10;99.90
49765;DHT22;35657;51.204;-4.130;2022-11-18T01:52:58;11.10;99.90
49765;DHT22;35657;51.204;-4.130;2022-11-18T01:55:26;11.00;99.90
49765;DHT22;35657;51.204;-4.130;2022-11-18T01:58:01;11.00;99.90
49765;DHT22;35657;51.204;-4.130;2022-11-18T02:00:28;11.00;99.90
49765;DHT22;35657;51.204;-4.130;2022-11-18T02:02:54;11.00;99.90
49765;DHT22;35657;51.204;-4.130;2022-11-18T02:05:21;11.00;99.90
49765;DHT22;35657;51.204;-4.130;2022-11-18T02:07:47;11.00;99.90
49765;DHT22;35657;51.204;-4.130;2022-11-18T02:10:20;11.00;99.90
49765;DHT22;35657;51.204;-4.130;2022-11-18T02:12:47;11.00;99.90
49765;DHT22;35657;51.204;-4.130;2022-11-18T02:15:13;11.00;99.90
49765;DHT22;35657;51.204;-4.130;2022-11-18T02:17:54;11.00;99.90
49765;DHT22;35657;51.204;-4.130;2022-11-18T02:20:30;11.00;99.90
49765;DHT22;35657;51.204;-4.130;2022-11-18T02:29:09;11.00;99.90
49765;DHT22;35657;51.204;-4.130;2022-11-18T02:31:59;10.90;99.90
49765;DHT22;35657;51.204;-4.130;2022-11-18T02:39:34;10.90;99.90
49765;DHT22;35657;51.204;-4.130;2022-11-18T02:42:07;10.90;99.90
49765;DHT22;35657;51.204;-4.130;2022-11-18T02:44:35;11.00;99.90
49765;DHT22;35657;51.204;-4.130;2022-11-18T02:47:05;10.90;99.90
49765;DHT22;35657;51.204;-4.130;2022-11-18T02:49:42;11.00;99.90
49765;DHT22;35657;51.204;-4.130;2022-11-18T02:52:10;10.90;99.90
49765;DHT22;35657;51.204;-4.130;2022-11-18T02:54:39;10.90;99.90
49765;DHT22;35657;51.204;-4.130;2022-11-18T02:57:06;10.90;99.90
49765;DHT22;35657;51.204;-4.130;2022-11-18T02:59:33;10.90;99.90
49765;DHT22;35657;51.204;-4.130;2022-11-18T03:01:59;10.90;99.90
49765;DHT22;35657;51.204;-4.130;2022-11-18T03:04:25;11.00;99.90
49765;DHT22;35657;51.204;-4.130;2022-11-18T03:07:19;10.90;99.90
49765;DHT22;35657;51.204;-4.130;2022-11-18T03:09:49;10.90;99.90
49765;DHT22;35657;51.204;-4.130;2022-11-18T03:20:37;10.90;99.90
49765;DHT22;35657;51.204;-4.130;2022-11-18T03:23:26;10.90;99.90
49765;DHT22;35657;51.204;-4.130;2022-11-18T03:25:56;10.90;99.90
49765;DHT22;35657;51.204;-4.130;2022-11-18T03:28:43;10.80;99.90
49765;DHT22;35657;51.204;-4.130;2022-11-18T03:31:18;10.90;99.90
49765;DHT22;35657;51.204;-4.130;2022-11-18T03:33:56;10.80;99.90
49765;DHT22;35657;51.204;-4.130;2022-11-18T03:36:25;10.90;99.90
49765;DHT22;35657;51.204;-4.130;2022-11-18T03:38:56;10.90;99.90
49765;DHT22;35657;51.204;-4.130;2022-11-18T03:41:24;10.90;99.90
49765;DHT22;35657;51.204;-4.130;2022-11-18T03:44:16;11.00;99.90
49765;DHT22;35657;51.204;-4.130;2022-11-18T03:46:43;10.90;99.90
49765;DHT22;35657;51.204;-4.130;2022-11-18T03:49:16;10.90;99.90
49765;DHT22;35657;51.204;-4.130;2022-11-18T03:51:53;10.90;99.90
49765;DHT22;35657;51.204;-4.130;2022-11-18T03:54:29;10.90;99.90
49765;DHT22;35657;51.204;-4.130;2022-11-18T03:57:14;10.90;99.90
49765;DHT22;35657;51.204;-4.130;2022-11-18T04:00:07;10.90;99.90
49765;DHT22;35657;51.204;-4.130;2022-11-18T04:02:34;10.90;99.90
49765;DHT22;35657;51.204;-4.130;2022-11-18T04:05:02;10.80;99.90
49765;DHT22;35657;51.204;-4.130;2022-11-18T04:10:24;10.80;99.90
49765;DHT22;35657;51.204;-4.130;2022-11-18T04:13:19;10.80;99.90
49765;DHT22;35657;51.204;-4.130;2022-11-18T04:15:47;10.80;99.90
49765;DHT22;35657;51.204;-4.130;2022-11-18T04:18:13;10.80;99.90
49765;DHT22;35657;51.204;-4.130;2022-11-18T04:20:38;10.80;99.90
49765;DHT22;35657;51.204;-4.130;2022-11-18T04:23:05;10.80;99.90
49765;DHT22;35657;51.204;-4.130;2022-11-18T04:25:31;10.80;99.90
49765;DHT22;35657;51.204;-4.130;2022-11-18T04:27:57;10.80;99.90
49765;DHT22;35657;51.204;-4.130;2022-11-18T04:30:23;10.80;99.90
49765;DHT22;35657;51.204;-4.130;2022-11-18T04:32:49;10.90;99.90
49765;DHT22;35657;51.204;-4.130;2022-11-18T04:35:15;10.80;99.90
49765;DHT22;35657;51.204;-4.130;2022-11-18T04:37:41;10.90;99.90
49765;DHT22;35657;51.204;-4.130;2022-11-18T04:40:07;10.90;99.90
49765;DHT22;35657;51.204;-4.130;2022-11-18T04:42:33;10.80;99.90
49765;DHT22;35657;51.204;-4.130;2022-11-18T04:44:59;10.80;99.90
49765;DHT22;35657;51.204;-4.130;2022-11-18T04:47:25;10.80;99.90
49765;DHT22;35657;51.204;-4.130;2022-11-18T04:49:50;10.80;99.90
49765;DHT22;35657;51.204;-4.130;2022-11-18T04:52:16;10.80;99.90
49765;DHT22;35657;51.204;-4.130;2022-11-18T04:54:42;10.80;99.90
49765;DHT22;35657;51.204;-4.130;2022-11-18T04:57:08;10.80;99.90
49765;DHT22;35657;51.204;-4.130;2022-11-18T04:59:34;10.80;99.90
49765;DHT22;35657;51.204;-4.130;2022-11-18T05:02:00;10.80;99.90
49765;DHT22;35657;51.204;-4.130;2022-11-18T05:04:28;10.70;99.90
49765;DHT22;35657;51.204;-4.130;2022-11-18T05:06:58;10.70;99.90
49765;DHT22;35657;51.204;-4.130;2022-11-18T05:09:24;10.70;99.90
49765;DHT22;35657;51.204;-4.130;2022-11-18T05:11:50;10.70;99.90
49765;DHT22;35657;51.204;-4.130;2022-11-18T05:14:35;10.70;99.90
49765;DHT22;35657;51.204;-4.130;2022-11-18T05:17:04;10.70;99.90
49765;DHT22;35657;51.204;-4.130;2022-11-18T05:19:30;10.70;99.90
49765;DHT22;35657;51.204;-4.130;2022-11-18T05:21:56;10.70;99.90
49765;DHT22;35657;51.204;-4.130;2022-11-18T05:24:22;10.70;99.90
49765;DHT22;35657;51.204;-4.130;2022-11-18T05:26:51;10.80;99.90
49765;DHT22;35657;51.204;-4.130;2022-11-18T05:29:18;10.70;99.90
49765;DHT22;35657;51.204;-4.130;2022-11-18T05:31:45;10.70;99.90
49765;DHT22;35657;51.204;-4.130;2022-11-18T05:34:11;10.80;99.90
49765;DHT22;35657;51.204;-4.130;2022-11-18T05:36:36;10.70;99.90
49765;DHT22;35657;51.204;-4.130;2022-11-18T05:39:02;10.70;99.90
49765;DHT22;35657;51.204;-4.130;2022-11-18T05:41:28;10.80;99.90
49765;DHT22;35657;51.204;-4.130;2022-11-18T05:44:13;10.70;99.90
49765;DHT22;35657;51.204;-4.130;2022-11-18T05:46:39;10.70;99.90
49765;DHT22;35657;51.204;-4.130;2022-11-18T05:49:04;10.70;99.90
49765;DHT22;35657;51.204;-4.130;2022-11-18T05:51:30;10.70;99.90
49765;DHT22;35657;51.204;-4.130;2022-11-18T05:53:56;10.70;99.90
49765;DHT22;35657;51.204;-4.130;2022-11-18T05:56:32;10.70;99.90
49765;DHT22;35657;51.204;-4.130;2022-11-18T05:59:00;10.70;99.90
49765;DHT22;35657;51.204;-4.130;2022-11-18T06:01:40;10.70;99.90
49765;DHT22;35657;51.204;-4.130;2022-11-18T06:06:39;10.70;99.90
49765;DHT22;35657;51.204;-4.130;2022-11-18T06:09:06;10.60;99.90
49765;DHT22;35657;51.204;-4.130;2022-11-18T06:11:54;10.70;99.90
49765;DHT22;35657;51.204;-4.130;2022-11-18T06:14:22;10.60;99.90
49765;DHT22;35657;51.204;-4.130;2022-11-18T06:16:56;10.60;99.90
49765;DHT22;35657;51.204;-4.130;2022-11-18T06:19:24;10.60;99.90
49765;DHT22;35657;51.204;-4.130;2022-11-18T06:21:50;10.60;99.90
49765;DHT22;35657;51.204;-4.130;2022-11-18T06:24:16;10.70;99.90
49765;DHT22;35657;51.204;-4.130;2022-11-18T06:26:43;10.60;99.90
49765;DHT22;35657;51.204;-4.130;2022-11-18T06:29:12;10.60;99.90
49765;DHT22;35657;51.204;-4.130;2022-11-18T06:31:39;10.60;99.90
49765;DHT22;35657;51.204;-4.130;2022-11-18T06:34:05;10.60;99.90
49765;DHT22;35657;51.204;-4.130;2022-11-18T06:36:31;10.60;99.90
49765;DHT22;35657;51.204;-4.130;2022-11-18T06:39:04;10.60;99.90
49765;DHT22;35657;51.204;-4.130;2022-11-18T06:41:31;10.60;99.90
49765;DHT22;35657;51.204;-4.130;2022-11-18T06:43:57;10.60;99.90
49765;DHT22;35657;51.204;-4.130;2022-11-18T06:46:23;10.60;99.90
49765;DHT22;35657;51.204;-4.130;2022-11-18T06:49:07;10.60;99.90
49765;DHT22;35657;51.204;-4.130;2022-11-18T06:51:33;10.60;99.90
49765;DHT22;35657;51.204;-4.130;2022-11-18T06:53:59;10.60;99.90
49765;DHT22;35657;51.204;-4.130;2022-11-18T06:56:24;10.60;99.90
49765;DHT22;35657;51.204;-4.130;2022-11-18T06:58:57;10.60;99.90
49765;DHT22;35657;51.204;-4.130;2022-11-18T07:01:28;10.70;99.90
49765;DHT22;35657;51.204;-4.130;2022-11-18T07:03:56;10.60;99.90
49765;DHT22;35657;51.204;-4.130;2022-11-18T07:06:23;10.60;99.90
49765;DHT22;35657;51.204;-4.130;2022-11-18T07:08:50;10.60;99.90
49765;DHT22;35657;51.204;-4.130;2022-11-18T07:11:23;10.60;99.90
49765;DHT22;35657;51.204;-4.130;2022-11-18T07:13:49;10.60;99.90
49765;DHT22;35657;51.204;-4.130;2022-11-18T07:16:17;10.60;99.90
49765;DHT22;35657;51.204;-4.130;2022-11-18T07:18:44;10.70;99.90
49765;DHT22;35657;51.204;-4.130;2022-11-18T07:21:12;10.60;99.90
49765;DHT22;35657;51.204;-4.130;2022-11-18T07:23:38;10.60;99.90
49765;DHT22;35657;51.204;-4.130;2022-11-18T07:26:05;10.60;99.90
49765;DHT22;35657;51.204;-4.130;2022-11-18T07:28:31;10.60;99.90
49765;DHT22;35657;51.204;-4.130;2022-11-18T07:31:08;10.60;99.90
49765;DHT22;35657;51.204;-4.130;2022-11-18T07:33:34;10.60;99.90
49765;DHT22;35657;51.204;-4.130;2022-11-18T07:36:08;10.60;99.90
49765;DHT22;35657;51.204;-4.130;2022-11-18T07:38:35;10.60;99.90
49765;DHT22;35657;51.204;-4.130;2022-11-18T07:43:34;10.60;99.90
49765;DHT22;35657;51.204;-4.130;2022-11-18T07:46:10;10.60;99.90
49765;DHT22;35657;51.204;-4.130;2022-11-18T07:48:36;10.60;99.90
49765;DHT22;35657;51.204;-4.130;2022-11-18T07:51:02;10.60;99.90
49765;DHT22;35657;51.204;-4.130;2022-11-18T07:53:32;10.60;99.90
49765;DHT22;35657;51.204;-4.130;2022-11-18T07:55:58;10.60;99.90
49765;DHT22;35657;51.204;-4.130;2022-11-18T07:58:24;10.60;99.90
49765;DHT22;35657;51.204;-4.130;2022-11-18T08:00:50;10.60;99.90
49765;DHT22;35657;51.204;-4.130;2022-11-18T08:03:16;10.60;99.90
49765;DHT22;35657;51.204;-4.130;2022-11-18T08:05:41;10.60;99.90
49765;DHT22;35657;51.204;-4.130;2022-11-18T08:08:07;10.60;99.90
49765;DHT22;35657;51.204;-4.130;2022-11-18T08:10:33;10.60;99.90
49765;DHT22;35657;51.204;-4.130;2022-11-18T08:12:59;10.60;99.90
49765;DHT22;35657;51.204;-4.130;2022-11-18T08:15:24;10.60;99.90
49765;DHT22;35657;51.204;-4.130;2022-11-18T08:17:50;10.60;99.90
49765;DHT22;35657;51.204;-4.130;2022-11-18T08:20:16;10.60;99.90
49765;DHT22;35657;51.204;-4.130;2022-11-18T08:22:42;10.60;99.90
49765;DHT22;35657;51.204;-4.130;2022-11-18T08:25:08;10.60;99.90
49765;DHT22;35657;51.204;-4.130;2022-11-18T08:27:33;10.60;99.90
49765;DHT22;35657;51.204;-4.130;2022-11-18T08:29:59;10.60;99.90
49765;DHT22;35657;51.204;-4.130;2022-11-18T08:32:25;10.60;99.90
49765;DHT22;35657;51.204;-4.130;2022-11-18T08:34:51;10.50;99.90
49765;DHT22;35657;51.204;-4.130;2022-11-18T08:37:17;10.50;99.90
49765;DHT22;35657;51.204;-4.130;2022-11-18T08:39:43;10.50;99.90
49765;DHT22;35657;51.204;-4.130;2022-11-18T08:42:09;10.50;99.90
49765;DHT22;35657;51.204;-4.130;2022-11-18T08:44:35;10.50;99.90
49765;DHT22;35657;51.204;-4.130;2022-11-18T08:47:01;10.50;99.90
49765;DHT22;35657;51.204;-4.130;2022-11-18T08:49:27;10.50;99.90
49765;DHT22;35657;51.204;-4.130;2022-11-18T08:51:53;10.60;99.90
49765;DHT22;35657;51.204;-4.130;2022-11-18T08:54:19;10.50;99.90
49765;DHT22;35657;51.204;-4.130;2022-11-18T08:56:45;10.60;99.90
49765;DHT22;35657;51.204;-4.130;2022-11-18T08:59:11;10.60;99.90
49765;DHT22;35657;51.204;-4.130;2022-11-18T09:01:37;10.60;99.90
49765;DHT22;35657;51.204;-4.130;2022-11-18T09:04:03;10.60;99.90
49765;DHT22;35657;51.204;-4.130;2022-11-18T09:06:29;10.60;99.90
49765;DHT22;35657;51.204;-4.130;2022-11-18T09:08:55;10.60;99.90
49765;DHT22;35657;51.204;-4.130;2022-11-18T09:11:25;10.50;99.90
49765;DHT22;35657;51.204;-4.130;2022-11-18T09:13:52;10.60;99.90
49765;DHT22;35657;51.204;-4.130;2022-11-18T09:16:18;10.60;99.90
49765;DHT22;35657;51.204;-4.130;2022-11-18T09:18:44;10.60;99.90
49765;DHT22;35657;51.204;-4.130;2022-11-18T09:21:10;10.60;99.90
49765;DHT22;35657;51.204;-4.130;2022-11-18T09:23:36;10.60;99.90
49765;DHT22;35657;51.204;-4.130;2022-11-18T09:26:08;10.60;99.90
49765;DHT22;35657;51.204;-4.130;2022-11-18T09:28:34;10.60;99.90
49765;DHT22;35657;51.204;-4.130;2022-11-18T09:33:30;10.60;99.90
49765;DHT22;35657;51.204;-4.130;2022-11-18T09:35:56;10.60;99.90
49765;DHT22;35657;51.204;-4.130;2022-11-18T09:38:21;10.60;99.90
49765;DHT22;35657;51.204;-4.130;2022-11-18T09:41:12;10.60;99.90
49765;DHT22;35657;51.204;-4.130;2022-11-18T09:43:51;10.60;99.90
49765;DHT22;35657;51.204;-4.130;2022-11-18T09:49:10;10.60;99.90
49765;DHT22;35657;51.204;-4.130;2022-11-18T09:51:42;10.60;99.90
49765;DHT22;35657;51.204;-4.130;2022-11-18T09:54:23;10.70;99.90
49765;DHT22;35657;51.204;-4.130;2022-11-18T09:56:52;10.70;99.90
49765;DHT22;35657;51.204;-4.130;2022-11-18T09:59:20;10.60;99.90
49765;DHT22;35657;51.204;-4.130;2022-11-18T10:01:48;10.60;99.90
49765;DHT22;35657;51.204;-4.130;2022-11-18T10:04:19;10.60;99.90
49765;DHT22;35657;51.204;-4.130;2022-11-18T10:06:48;10.60;99.90
49765;DHT22;35657;51.204;-4.130;2022-11-18T10:12:11;10.60;99.90
49765;DHT22;35657;51.204;-4.130;2022-11-18T10:14:44;10.60;99.90
49765;DHT22;35657;51.204;-4.130;2022-11-18T10:22:55;10.60;99.90
49765;DHT22;35657;51.204;-4.130;2022-11-18T10:25:22;10.60;99.90
49765;DHT22;35657;51.204;-4.130;2022-11-18T10:27:49;10.60;99.90
49765;DHT22;35657;51.204;-4.130;2022-11-18T10:30:23;10.60;99.90
49765;DHT22;35657;51.204;-4.130;2022-11-18T10:33:01;10.60;99.90
49765;DHT22;35657;51.204;-4.130;2022-11-18T10:35:33;10.60;99.90
49765;DHT22;35657;51.204;-4.130;2022-11-18T10:40:58;10.60;99.90
49765;DHT22;35657;51.204;-4.130;2022-11-18T10:46:16;10.60;99.90
49765;DHT22;35657;51.204;-4.130;2022-11-18T10:48:42;10.70;99.90
49765;DHT22;35657;51.204;-4.130;2022-11-18T10:51:23;10.70;99.90
49765;DHT22;35657;51.204;-4.130;2022-11-18T10:53:49;10.70;99.90
49765;DHT22;35657;51.204;-4.130;2022-11-18T10:56:16;10.70;99.90
49765;DHT22;35657;51.204;-4.130;2022-11-18T10:58:47;10.70;99.90
49765;DHT22;35657;51.204;-4.130;2022-11-18T11:01:25;10.70;99.90
49765;DHT22;35657;51.204;-4.130;2022-11-18T11:06:38;10.70;99.90
49765;DHT22;35657;51.204;-4.130;2022-11-18T11:11:39;10.70;99.90
49765;DHT22;35657;51.204;-4.130;2022-11-18T11:19:23;10.70;99.90
49765;DHT22;35657;51.204;-4.130;2022-11-18T11:21:50;10.70;99.90
49765;DHT22;35657;51.204;-4.130;2022-11-18T11:24:16;10.80;99.90
49765;DHT22;35657;51.204;-4.130;2022-11-18T11:34:43;10.80;99.90
49765;DHT22;35657;51.204;-4.130;2022-11-18T11:47:51;10.90;99.90
49765;DHT22;35657;51.204;-4.130;2022-11-18T11:50:44;10.90;99.90
49765;DHT22;35657;51.204;-4.130;2022-11-18T11:56:44;10.90;99.90
49765;DHT22;35657;51.204;-4.130;2022-11-18T12:04:57;11.00;99.90
49765;DHT22;35657;51.204;-4.130;2022-11-18T12:07:31;11.00;99.90
49765;DHT22;35657;51.204;-4.130;2022-11-18T12:15:46;10.90;99.90
49765;DHT22;35657;51.204;-4.130;2022-11-18T12:18:40;10.90;99.90
49765;DHT22;35657;51.204;-4.130;2022-11-18T12:21:07;10.90;99.90
49765;DHT22;35657;51.204;-4.130;2022-11-18T12:23:33;11.00;99.90
49765;DHT22;35657;51.204;-4.130;2022-11-18T12:26:08;11.10;99.90
49765;DHT22;35657;51.204;-4.130;2022-11-18T12:28:38;11.30;99.90
49765;DHT22;35657;51.204;-4.130;2022-11-18T12:36:08;11.30;99.90
49765;DHT22;35657;51.204;-4.130;2022-11-18T12:38:34;11.30;99.90
49765;DHT22;35657;51.204;-4.130;2022-11-18T12:41:00;11.20;99.90
49765;DHT22;35657;51.204;-4.130;2022-11-18T12:55:12;11.20;99.90
49765;DHT22;35657;51.204;-4.130;2022-11-18T12:57:40;11.20;99.90
49765;DHT22;35657;51.204;-4.130;2022-11-18T13:00:35;11.20;99.90
49765;DHT22;35657;51.204;-4.130;2022-11-18T13:03:21;11.10;99.90
49765;DHT22;35657;51.204;-4.130;2022-11-18T13:05:49;11.10;99.90
49765;DHT22;35657;51.204;-4.130;2022-11-18T13:08:16;11.20;99.90
49765;DHT22;35657;51.204;-4.130;2022-11-18T13:13:31;11.20;99.90
49765;DHT22;35657;51.204;-4.130;2022-11-18T13:16:19;11.20;99.90
49765;DHT22;35657;51.204;-4.130;2022-11-18T13:19:05;11.30;99.90
49765;DHT22;35657;51.204;-4.130;2022-11-18T13:21:30;11.40;99.90
49765;DHT22;35657;51.204;-4.130;2022-11-18T13:24:17;11.30;99.90
49765;DHT22;35657;51.204;-4.130;2022-11-18T13:26:44;11.30;99.90
49765;DHT22;35657;51.204;-4.130;2022-11-18T13:29:35;11.30;99.90
49765;DHT22;35657;51.204;-4.130;2022-11-18T13:34:30;11.10;99.90
49765;DHT22;35657;51.204;-4.130;2022-11-18T13:36:58;11.10;99.90
49765;DHT22;35657;51.204;-4.130;2022-11-18T13:39:29;11.10;99.90
49765;DHT22;35657;51.204;-4.130;2022-11-18T13:42:15;11.10;99.90
49765;DHT22;35657;51.204;-4.130;2022-11-18T13:44:45;11.10;99.90
49765;DHT22;35657;51.204;-4.130;2022-11-18T13:47:45;11.10;99.90
49765;DHT22;35657;51.204;-4.130;2022-11-18T13:56:01;11.10;99.90
49765;DHT22;35657;51.204;-4.130;2022-11-18T14:01:21;11.10;99.90
49765;DHT22;35657;51.204;-4.130;2022-11-18T14:03:53;11.20;99.90
49765;DHT22;35657;51.204;-4.130;2022-11-18T14:09:24;11.10;99.90
49765;DHT22;35657;51.204;-4.130;2022-11-18T14:14:43;11.10;99.90
49765;DHT22;35657;51.204;-4.130;2022-11-18T14:17:26;11.10;99.90
49765;DHT22;35657;51.204;-4.130;2022-11-18T14:19:56;11.10;99.90
49765;DHT22;35657;51.204;-4.130;2022-11-18T14:25:13;11.10;99.90
49765;DHT22;35657;51.204;-4.130;2022-11-18T14:27:42;11.10;99.90
49765;DHT22;35657;51.204;-4.130;2022-11-18T14:30:34;11.00;99.90
49765;DHT22;35657;51.204;-4.130;2022-11-18T14:33:20;11.00;99.90
49765;DHT22;35657;51.204;-4.130;2022-11-18T14:36:00;11.00;99.90
49765;DHT22;35657;51.204;-4.130;2022-11-18T14:41:07;11.00;99.90
49765;DHT22;35657;51.204;-4.130;2022-11-18T14:43:33;11.00;99.90
49765;DHT22;35657;51.204;-4.130;2022-11-18T14:46:02;11.00;99.90
49765;DHT22;35657;51.204;-4.130;2022-11-18T14:48:29;11.00;99.90
49765;DHT22;35657;51.204;-4.130;2022-11-18T14:50:56;11.00;99.90
49765;DHT22;35657;51.204;-4.130;2022-11-18T14:53:22;11.00;99.90
49765;DHT22;35657;51.204;-4.130;2022-11-18T14:55:50;11.00;99.90
49765;DHT22;35657;51.204;-4.130;2022-11-18T14:58:17;11.00;99.90
49765;DHT22;35657;51.204;-4.130;2022-11-18T15:00:45;11.00;99.90
49765;DHT22;35657;51.204;-4.130;2022-11-18T15:03:11;11.00;99.90
49765;DHT22;35657;51.204;-4.130;2022-11-18T15:05:37;11.00;99.90
49765;DHT22;35657;51.204;-4.130;2022-11-18T15:08:03;11.10;99.90
49765;DHT22;35657;51.204;-4.130;2022-11-18T15:10:29;11.00;99.90
49765;DHT22;35657;51.204;-4.130;2022-11-18T15:12:55;10.90;99.90
49765;DHT22;35657;51.204;-4.130;2022-11-18T15:15:21;11.00;99.90
49765;DHT22;35657;51.204;-4.130;2022-11-18T15:17:48;10.90;99.90
49765;DHT22;35657;51.204;-4.130;2022-11-18T15:20:19;10.90;99.90
49765;DHT22;35657;51.204;-4.130;2022-11-18T15:22:45;10.90;99.90
49765;DHT22;35657;51.204;-4.130;2022-11-18T15:25:11;10.90;99.90
49765;DHT22;35657;51.204;-4.130;2022-11-18T15:27:37;10.90;99.90
49765;DHT22;35657;51.204;-4.130;2022-11-18T15:30:03;10.90;99.90
49765;DHT22;35657;51.204;-4.130;2022-11-18T15:32:29;10.80;99.90
49765;DHT22;35657;51.204;-4.130;2022-11-18T15:34:55;10.80;99.90
49765;DHT22;35657;51.204;-4.130;2022-11-18T15:37:21;10.80;99.90
49765;DHT22;35657;51.204;-4.130;2022-11-18T15:39:46;10.90;99.90
49765;DHT22;35657;51.204;-4.130;2022-11-18T15:42:18;10.90;99.90
49765;DHT22;35657;51.204;-4.130;2022-11-18T15:44:44;10.80;99.90
49765;DHT22;35657;51.204;-4.130;2022-11-18T15:47:10;10.80;99.90
49765;DHT22;35657;51.204;-4.130;2022-11-18T15:49:36;10.80;99.90
49765;DHT22;35657;51.204;-4.130;2022-11-18T15:52:08;10.80;99.90
49765;DHT22;35657;51.204;-4.130;2022-11-18T15:54:35;10.80;99.90
49765;DHT22;35657;51.204;-4.130;2022-11-18T15:57:01;10.80;99.90
49765;DHT22;35657;51.204;-4.130;2022-11-18T15:59:27;10.80;99.90
49765;DHT22;35657;51.204;-4.130;2022-11-18T16:01:54;10.70;99.90
49765;DHT22;35657;51.204;-4.130;2022-11-18T16:04:20;10.70;99.90
49765;DHT22;35657;51.204;-4.130;2022-11-18T16:06:46;10.70;99.90
49765;DHT22;35657;51.204;-4.130;2022-11-18T16:09:13;10.70;99.90
49765;DHT22;35657;51.204;-4.130;2022-11-18T16:11:40;10.60;99.90
49765;DHT22;35657;51.204;-4.130;2022-11-18T16:14:24;10.60;99.90
49765;DHT22;35657;51.204;-4.130;2022-11-18T16:16:52;10.50;99.90
49765;DHT22;35657;51.204;-4.130;2022-11-18T16:19:20;10.50;99.90
49765;DHT22;35657;51.204;-4.130;2022-11-18T16:21:50;10.50;99.90
49765;DHT22;35657;51.204;-4.130;2022-11-18T16:24:18;10.50;99.90
49765;DHT22;35657;51.204;-4.130;2022-11-18T16:26:45;10.50;99.90
49765;DHT22;35657;51.204;-4.130;2022-11-18T16:29:11;10.50;99.90
49765;DHT22;35657;51.204;-4.130;2022-11-18T16:31:39;10.50;99.90
49765;DHT22;35657;51.204;-4.130;2022-11-18T16:34:36;10.40;99.90
49765;DHT22;35657;51.204;-4.130;2022-11-18T16:37:02;10.40;99.90
49765;DHT22;35657;51.204;-4.130;2022-11-18T16:39:30;10.50;99.90
49765;DHT22;35657;51.204;-4.130;2022-11-18T16:42:00;10.50;99.90
49765;DHT22;35657;51.204;-4.130;2022-11-18T16:44:26;10.50;99.90
49765;DHT22;35657;51.204;-4.130;2022-11-18T16:46:56;10.50;99.90
49765;DHT22;35657;51.204;-4.130;2022-11-18T16:49:23;10.40;99.90
49765;DHT22;35657;51.204;-4.130;2022-11-18T16:51:52;10.40;99.90
49765;DHT22;35657;51.204;-4.130;2022-11-18T16:54:19;10.40;99.90
49765;DHT22;35657;51.204;-4.130;2022-11-18T16:56:46;10.40;99.90
49765;DHT22;35657;51.204;-4.130;2022-11-18T16:59:20;10.40;99.90
49765;DHT22;35657;51.204;-4.130;2022-11-18T17:01:46;10.40;99.90
49765;DHT22;35657;51.204;-4.130;2022-11-18T17:04:13;10.40;99.90
49765;DHT22;35657;51.204;-4.130;2022-11-18T17:06:39;10.30;99.90
49765;DHT22;35657;51.204;-4.130;2022-11-18T17:09:06;10.30;99.90
49765;DHT22;35657;51.204;-4.130;2022-11-18T17:11:33;10.30;99.90
49765;DHT22;35657;51.204;-4.130;2022-11-18T17:13:58;10.30;99.90
49765;DHT22;35657;51.204;-4.130;2022-11-18T17:16:25;10.30;99.90
49765;DHT22;35657;51.204;-4.130;2022-11-18T17:18:55;10.20;99.90
49765;DHT22;35657;51.204;-4.130;2022-11-18T17:21:22;10.20;99.90
49765;DHT22;35657;51.204;-4.130;2022-11-18T17:23:48;10.30;99.90
49765;DHT22;35657;51.204;-4.130;2022-11-18T17:26:18;10.30;99.90
49765;DHT22;35657;51.204;-4.130;2022-11-18T17:28:44;10.30;99.90
49765;DHT22;35657;51.204;-4.130;2022-11-18T17:31:12;10.20;99.90
49765;DHT22;35657;51.204;-4.130;2022-11-18T17:33:38;10.30;99.90
49765;DHT22;35657;51.204;-4.130;2022-11-18T17:36:06;10.30;99.90
49765;DHT22;35657;51.204;-4.130;2022-11-18T17:38:37;10.30;99.90
49765;DHT22;35657;51.204;-4.130;2022-11-18T17:41:04;10.20;99.90
49765;DHT22;35657;51.204;-4.130;2022-11-18T17:43:30;10.20;99.90
49765;DHT22;35657;51.204;-4.130;2022-11-18T17:45:57;10.30;99.90
49765;DHT22;35657;51.204;-4.130;2022-11-18T17:48:25;10.30;99.90